Terminal Aerodrome Forecast
Issued by NWS

Home | Current Version | Previous Version | Text Only | Print | Product List | Glossary On
Versions: 1 2 3 4 5 6 7 8 9 10 11 12 13 14 15 16 17 18 19 20
000
FTUS45 KSLC 300544
TAFBCE
TAF
KBCE 300544Z 3006/0106 28007KT P6SM VCSH SCT030 BKN060
     FM301200 05009KT P6SM -SHRA SCT020 BKN050
     FM301900 10009KT P6SM -SHRA BKN030 OVC050
     FM010300 03010KT P6SM SCT030 BKN060=

USA.gov is the U.S. government's official web portal to all federal, state and local government web resources and services.